Welcome to Northern Hawkes Bay. New Zealand.
PWS Header
      nz Flag



Hit Counter


W3C Valid W3C Valid logo


    Wairoa

Select any of the Stations below to visit their websites.










Historic Data from Weather Underground
Select the location of interest below. Wairoa is the default. Please have patience, this Data is slow to load in.
Northern Hawkes Bay Historical Data
Daily Summary for May 18, 2018 Units:  Both    English   Metric
« Previous Day
Next Day »
Daily Weekly Monthly Yearly Custom
  High: Low: Average:
Temperature: 66 °F /  18.9 °C 43.7 °F /  6.5 °C 55 °F /  12.8 °C
Dew Point: 52.2 °F /  11.2 °C 42.1 °F /  5.6 °C 46.9 °F /  8.3 °C
Humidity: 96% 57% 75%
Wind Speed: 13mph /  20.9km/h - 4.5mph /  7.2km/h
Wind Gust: 21.3mph /  34.3km/h - -
Wind- - NNW
Pressure: 29.9 in /  1014.1 hPa 29.8 in /  1010.0 hPa -
Precipitation: 0 in /  0.0 mm    
Historical Graphs
 
 
Tabular Data for May 18, 2018
Time Temperature Dew Point Pressure Wind Wind Speed Wind Gust Humidity Rainfall Rate (Hourly) solar
00:02 48 °F /  8.9 °C 44.1 °F /  6.7 °C 29.8in /  1010.4hPa NW 0.7mph /  1.1km/h 3.8mph /  6.1km/h 86% 0in /  0.0mm 0 W/m2
00:07 47.7 °F /  8.7 °C 43.7 °F /  6.5 °C 29.8in /  1010.4hPa NW 2.2mph /  3.5km/h 3.1mph /  5.0km/h 86% 0in /  0.0mm 0 W/m2
00:12 47.3 °F /  8.5 °C 43.5 °F /  6.4 °C 29.8in /  1010.0hPa NW 1.6mph /  2.6km/h 3.8mph /  6.1km/h 87% 0in /  0.0mm 0 W/m2
00:17 46.9 °F /  8.3 °C 43.5 °F /  6.4 °C 29.8in /  1010.7hPa Calm   3.8mph /  6.1km/h 88% 0in /  0.0mm 0 W/m2
00:22 46.9 °F /  8.3 °C 43.5 °F /  6.4 °C 29.8in /  1010.4hPa Calm   3.1mph /  5.0km/h 88% 0in /  0.0mm 0 W/m2
00:27 46.8 °F /  8.2 °C 43.3 °F /  6.3 °C 29.8in /  1010.4hPa NW 3.1mph /  5.0km/h 4.5mph /  7.2km/h 88% 0in /  0.0mm 0 W/m2
00:32 46.6 °F /  8.1 °C 43.5 °F /  6.4 °C 29.8in /  1010.4hPa NNW 3.1mph /  5.0km/h 4.5mph /  7.2km/h 89% 0in /  0.0mm 0 W/m2
00:37 46.6 °F /  8.1 °C 43.5 °F /  6.4 °C 29.8in /  1010.4hPa NNW 2.2mph /  3.5km/h 5.4mph /  8.7km/h 89% 0in /  0.0mm 0 W/m2
00:42 46.9 °F /  8.3 °C 43.9 °F /  6.6 °C 29.8in /  1010.4hPa NNW 2.2mph /  3.5km/h 6mph /  9.7km/h 89% 0in /  0.0mm 0 W/m2
00:47 46.9 °F /  8.3 °C 43.9 °F /  6.6 °C 29.8in /  1010.4hPa NW 3.1mph /  5.0km/h 6mph /  9.7km/h 89% 0in /  0.0mm 0 W/m2
00:52 46.8 °F /  8.2 °C 43.7 °F /  6.5 °C 29.8in /  1010.4hPa NW 3.8mph /  6.1km/h 6mph /  9.7km/h 89% 0in /  0.0mm 0 W/m2
00:57 46.8 °F /  8.2 °C 43.7 °F /  6.5 °C 29.8in /  1010.4hPa NW 3.8mph /  6.1km/h 6mph /  9.7km/h 89% 0in /  0.0mm 0 W/m2
01:02 46.4 °F /  8.0 °C 43.3 °F /  6.3 °C 29.8in /  1010.4hPa NW 3.1mph /  5.0km/h 5.4mph /  8.7km/h 89% 0in /  0.0mm 0 W/m2
01:07 46.4 °F /  8.0 °C 43.3 °F /  6.3 °C 29.8in /  1010.7hPa NW 1.6mph /  2.6km/h 4.5mph /  7.2km/h 89% 0in /  0.0mm 0 W/m2
01:12 46 °F /  7.8 °C 43.3 °F /  6.3 °C 29.8in /  1010.4hPa NW 3.1mph /  5.0km/h 4.5mph /  7.2km/h 90% 0in /  0.0mm 0 W/m2
01:17 46 °F /  7.8 °C 43.5 °F /  6.4 °C 29.8in /  1010.4hPa NW 3.1mph /  5.0km/h 6mph /  9.7km/h 91% 0in /  0.0mm 0 W/m2
01:22 46 °F /  7.8 °C 43.5 °F /  6.4 °C 29.8in /  1010.4hPa NW 3.1mph /  5.0km/h 6mph /  9.7km/h 91% 0in /  0.0mm 0 W/m2
01:27 46 °F /  7.8 °C 43.5 °F /  6.4 °C 29.8in /  1010.4hPa NW 3.8mph /  6.1km/h 6mph /  9.7km/h 91% 0in /  0.0mm 0 W/m2
01:32 46 °F /  7.8 °C 43.5 °F /  6.4 °C 29.8in /  1010.4hPa NW 3.8mph /  6.1km/h 6mph /  9.7km/h 91% 0in /  0.0mm 0 W/m2
01:37 45.9 °F /  7.7 °C 43.3 °F /  6.3 °C 29.8in /  1010.4hPa NNW 2.2mph /  3.5km/h 6mph /  9.7km/h 91% 0in /  0.0mm 0 W/m2
01:42 46 °F /  7.8 °C 43.5 °F /  6.4 °C 29.8in /  1010.4hPa NNW 3.1mph /  5.0km/h 5.4mph /  8.7km/h 91% 0in /  0.0mm 0 W/m2
01:47 46 °F /  7.8 °C 43.5 °F /  6.4 °C 29.8in /  1010.4hPa NNW 3.8mph /  6.1km/h 5.4mph /  8.7km/h 91% 0in /  0.0mm 0 W/m2
01:52 46 °F /  7.8 °C 43.5 °F /  6.4 °C 29.8in /  1010.7hPa NW 3.1mph /  5.0km/h 6.9mph /  11.1km/h 91% 0in /  0.0mm 0 W/m2
01:57 46 °F /  7.8 °C 43.5 °F /  6.4 °C 29.8in /  1010.7hPa NNW 3.8mph /  6.1km/h 6.9mph /  11.1km/h 91% 0in /  0.0mm 0 W/m2
02:02 46.4 °F /  8.0 °C 43.5 °F /  6.4 °C 29.8in /  1010.4hPa NNW 3.8mph /  6.1km/h 6.9mph /  11.1km/h 90% 0in /  0.0mm 0 W/m2
02:07 46.4 °F /  8.0 °C 43.5 °F /  6.4 °C 29.8in /  1010.4hPa NNW 3.1mph /  5.0km/h 6.9mph /  11.1km/h 90% 0in /  0.0mm 0 W/m2
02:12 46 °F /  7.8 °C 43.3 °F /  6.3 °C 29.8in /  1010.4hPa NNW 2.2mph /  3.5km/h 6mph /  9.7km/h 90% 0in /  0.0mm 0 W/m2
02:17 46 °F /  7.8 °C 43.3 °F /  6.3 °C 29.8in /  1010.7hPa North 2.2mph /  3.5km/h 3.8mph /  6.1km/h 90% 0in /  0.0mm 0 W/m2
02:22 45.9 °F /  7.7 °C 43.3 °F /  6.3 °C 29.8in /  1010.4hPa NNW 3.1mph /  5.0km/h 4.5mph /  7.2km/h 91% 0in /  0.0mm 0 W/m2
02:27 45.7 °F /  7.6 °C 43.2 °F /  6.2 °C 29.8in /  1010.4hPa NNW 2.2mph /  3.5km/h 4.5mph /  7.2km/h 91% 0in /  0.0mm 0 W/m2
02:32 45.7 °F /  7.6 °C 43.2 °F /  6.2 °C 29.8in /  1010.4hPa NNW 1.6mph /  2.6km/h 5.4mph /  8.7km/h 91% 0in /  0.0mm 0 W/m2
02:37 45.9 °F /  7.7 °C 43.3 °F /  6.3 °C 29.8in /  1010.4hPa NNW 2.2mph /  3.5km/h 5.4mph /  8.7km/h 91% 0in /  0.0mm 0 W/m2
02:42 46 °F /  7.8 °C 43.5 °F /  6.4 °C 29.8in /  1010.7hPa North 2.2mph /  3.5km/h 5.4mph /  8.7km/h 91% 0in /  0.0mm 0 W/m2
02:47 45.9 °F /  7.7 °C 43.3 °F /  6.3 °C 29.8in /  1010.4hPa North 3.1mph /  5.0km/h 5.4mph /  8.7km/h 91% 0in /  0.0mm 0 W/m2
02:52 46 °F /  7.8 °C 43.5 °F /  6.4 °C 29.8in /  1010.4hPa NNW 3.8mph /  6.1km/h 6.9mph /  11.1km/h 91% 0in /  0.0mm 0 W/m2
02:57 46 °F /  7.8 °C 43.5 °F /  6.4 °C 29.8in /  1010.4hPa NNW 3.8mph /  6.1km/h 6.9mph /  11.1km/h 91% 0in /  0.0mm 0 W/m2
03:02 46 °F /  7.8 °C 43.5 °F /  6.4 °C 29.8in /  1010.4hPa NNW 2.2mph /  3.5km/h 6.9mph /  11.1km/h 91% 0in /  0.0mm 0 W/m2
03:07 45.9 °F /  7.7 °C 43.2 °F /  6.2 °C 29.8in /  1010.7hPa NNW 2.2mph /  3.5km/h 5.4mph /  8.7km/h 90% 0in /  0.0mm 0 W/m2
03:12 45.7 °F /  7.6 °C 43 °F /  6.1 °C 29.8in /  1010.7hPa North 2.2mph /  3.5km/h 4.5mph /  7.2km/h 90% 0in /  0.0mm 0 W/m2
03:17 45.7 °F /  7.6 °C 43.2 °F /  6.2 °C 29.8in /  1010.7hPa NNW 2.2mph /  3.5km/h 3.8mph /  6.1km/h 91% 0in /  0.0mm 0 W/m2
03:22 45.5 °F /  7.5 °C 43 °F /  6.1 °C 29.8in /  1010.4hPa NW 3.1mph /  5.0km/h 5.4mph /  8.7km/h 91% 0in /  0.0mm 0 W/m2
03:39 44.1 °F /  6.7 °C 42.3 °F /  5.7 °C 29.8in /  1010.4hPa NW 2.2mph /  3.5km/h 3.8mph /  6.1km/h 93% 0in /  0.0mm 0 W/m2
03:44 43.9 °F /  6.6 °C 42.3 °F /  5.7 °C 29.8in /  1010.4hPa NW 3.8mph /  6.1km/h 4.5mph /  7.2km/h 94% 0in /  0.0mm 0 W/m2
03:49 43.9 °F /  6.6 °C 42.3 °F /  5.7 °C 29.8in /  1010.4hPa NW 2.2mph /  3.5km/h 5.4mph /  8.7km/h 94% 0in /  0.0mm 0 W/m2
03:54 43.9 °F /  6.6 °C 42.4 °F /  5.8 °C 29.8in /  1010.4hPa NW 2.2mph /  3.5km/h 5.4mph /  8.7km/h 95% 0in /  0.0mm 0 W/m2
03:59 43.7 °F /  6.5 °C 42.4 °F /  5.8 °C 29.8in /  1010.4hPa NW 3.1mph /  5.0km/h 4.5mph /  7.2km/h 95% 0in /  0.0mm 0 W/m2
04:04 43.7 °F /  6.5 °C 42.4 °F /  5.8 °C 29.8in /  1010.4hPa NW 3.1mph /  5.0km/h 4.5mph /  7.2km/h 95% 0in /  0.0mm 0 W/m2
04:09 43.7 °F /  6.5 °C 42.4 °F /  5.8 °C 29.8in /  1010.4hPa NW 3.1mph /  5.0km/h 4.5mph /  7.2km/h 95% 0in /  0.0mm 0 W/m2
04:14 43.7 °F /  6.5 °C 42.6 °F /  5.9 °C 29.8in /  1010.4hPa NW 4.5mph /  7.2km/h 5.4mph /  8.7km/h 96% 0in /  0.0mm 0 W/m2
04:19 43.9 °F /  6.6 °C 42.8 °F /  6.0 °C 29.8in /  1010.4hPa NW 3.1mph /  5.0km/h 5.4mph /  8.7km/h 96% 0in /  0.0mm 0 W/m2
04:24 43.9 °F /  6.6 °C 42.8 °F /  6.0 °C 29.8in /  1010.4hPa NW 3.1mph /  5.0km/h 5.4mph /  8.7km/h 96% 0in /  0.0mm 0 W/m2
04:29 44.1 °F /  6.7 °C 43 °F /  6.1 °C 29.8in /  1010.4hPa NNW 4.5mph /  7.2km/h 5.4mph /  8.7km/h 96% 0in /  0.0mm 0 W/m2
04:34 44.6 °F /  7.0 °C 43.3 °F /  6.3 °C 29.8in /  1010.4hPa NNW 3.1mph /  5.0km/h 7.6mph /  12.2km/h 95% 0in /  0.0mm 0 W/m2
04:39 45.1 °F /  7.3 °C 43.5 °F /  6.4 °C 29.8in /  1010.4hPa North 3.8mph /  6.1km/h 7.6mph /  12.2km/h 94% 0in /  0.0mm 0 W/m2
04:44 45.5 °F /  7.5 °C 43.9 °F /  6.6 °C 29.8in /  1010.0hPa NNW 3.8mph /  6.1km/h 7.6mph /  12.2km/h 94% 0in /  0.0mm 0 W/m2
04:49 45.7 °F /  7.6 °C 43.9 °F /  6.6 °C 29.8in /  1010.4hPa NNW 3.8mph /  6.1km/h 6.9mph /  11.1km/h 93% 0in /  0.0mm 0 W/m2
04:54 45.7 °F /  7.6 °C 43.5 °F /  6.4 °C 29.8in /  1010.4hPa NW 4.5mph /  7.2km/h 7.6mph /  12.2km/h 92% 0in /  0.0mm 0 W/m2
04:59 45.7 °F /  7.6 °C 43.2 °F /  6.2 °C 29.8in /  1010.4hPa NW 3.8mph /  6.1km/h 7.6mph /  12.2km/h 91% 0in /  0.0mm 0 W/m2
05:04 45.7 °F /  7.6 °C 43.2 °F /  6.2 °C 29.8in /  1010.4hPa NNW 4.5mph /  7.2km/h 7.6mph /  12.2km/h 91% 0in /  0.0mm 0 W/m2
05:09 46 °F /  7.8 °C 43.5 °F /  6.4 °C 29.8in /  1010.4hPa NNW 3.8mph /  6.1km/h 8.3mph /  13.4km/h 91% 0in /  0.0mm 0 W/m2
05:14 45.9 °F /  7.7 °C 43.2 °F /  6.2 °C 29.8in /  1010.4hPa NNW 3.8mph /  6.1km/h 8.3mph /  13.4km/h 90% 0in /  0.0mm 0 W/m2
05:19 45.5 °F /  7.5 °C 42.6 °F /  5.9 °C 29.8in /  1010.7hPa NNW 4.5mph /  7.2km/h 6.9mph /  11.1km/h 90% 0in /  0.0mm 0 W/m2
05:24 45.5 °F /  7.5 °C 42.6 °F /  5.9 °C 29.8in /  1010.7hPa NNW 5.4mph /  8.7km/h 7.6mph /  12.2km/h 90% 0in /  0.0mm 0 W/m2
05:29 45.5 °F /  7.5 °C 43 °F /  6.1 °C 29.8in /  1010.7hPa NNW 6.9mph /  11.1km/h 9.2mph /  14.8km/h 91% 0in /  0.0mm 0 W/m2
05:34 45.3 °F /  7.4 °C 43 °F /  6.1 °C 29.8in /  1010.7hPa NNW 4.5mph /  7.2km/h 9.2mph /  14.8km/h 91% 0in /  0.0mm 0 W/m2
05:39 45.3 °F /  7.4 °C 43 °F /  6.1 °C 29.8in /  1010.7hPa NNW 4.5mph /  7.2km/h 9.2mph /  14.8km/h 91% 0in /  0.0mm 0 W/m2
05:44 44.8 °F /  7.1 °C 42.3 °F /  5.7 °C 29.8in /  1010.7hPa NNW 3.1mph /  5.0km/h 8.3mph /  13.4km/h 91% 0in /  0.0mm 0 W/m2
05:49 44.2 °F /  6.8 °C 42.1 °F /  5.6 °C 29.8in /  1010.7hPa NW 5.4mph /  8.7km/h 6.9mph /  11.1km/h 92% 0in /  0.0mm 0 W/m2
05:54 44.1 °F /  6.7 °C 42.3 °F /  5.7 °C 29.8in /  1010.4hPa NW 6mph /  9.7km/h 9.2mph /  14.8km/h 93% 0in /  0.0mm 0 W/m2
05:59 44.6 °F /  7.0 °C 42.6 °F /  5.9 °C 29.8in /  1010.7hPa NNW 4.5mph /  7.2km/h 9.2mph /  14.8km/h 93% 0in /  0.0mm 0 W/m2
06:04 45 °F /  7.2 °C 43.2 °F /  6.2 °C 29.8in /  1010.7hPa NNW 5.4mph /  8.7km/h 9.2mph /  14.8km/h 93% 0in /  0.0mm 0 W/m2
06:09 45 °F /  7.2 °C 43.2 °F /  6.2 °C 29.8in /  1010.7hPa NNW 5.4mph /  8.7km/h 9.8mph /  15.8km/h 93% 0in /  0.0mm 0 W/m2
06:14 45.1 °F /  7.3 °C 43 °F /  6.1 °C 29.8in /  1010.7hPa NNW 6mph /  9.7km/h 10.7mph /  17.2km/h 92% 0in /  0.0mm 0 W/m2
06:19 45.5 °F /  7.5 °C 43.3 °F /  6.3 °C 29.8in /  1010.7hPa NNW 4.5mph /  7.2km/h 12.1mph /  19.5km/h 92% 0in /  0.0mm 0 W/m2
06:24 45.7 °F /  7.6 °C 43.2 °F /  6.2 °C 29.8in /  1010.7hPa NNW 8.3mph /  13.4km/h 12.1mph /  19.5km/h 91% 0in /  0.0mm 0 W/m2
06:29 45.9 °F /  7.7 °C 43.3 °F /  6.3 °C 29.8in /  1010.7hPa NW 6mph /  9.7km/h 11.4mph /  18.3km/h 91% 0in /  0.0mm 0 W/m2
06:34 45.9 °F /  7.7 °C 43.2 °F /  6.2 °C 29.9in /  1011.1hPa NW 6.9mph /  11.1km/h 11.4mph /  18.3km/h 90% 0in /  0.0mm 0 W/m2
06:39 45.9 °F /  7.7 °C 43.2 °F /  6.2 °C 29.9in /  1011.1hPa NW 3.8mph /  6.1km/h 9.8mph /  15.8km/h 90% 0in /  0.0mm 0 W/m2
06:44 45.9 °F /  7.7 °C 42.8 °F /  6.0 °C 29.9in /  1011.1hPa NNW 4.5mph /  7.2km/h 8.3mph /  13.4km/h 89% 0in /  0.0mm 0 W/m2
06:49 45.9 °F /  7.7 °C 42.8 °F /  6.0 °C 29.9in /  1011.1hPa North 2.2mph /  3.5km/h 6.9mph /  11.1km/h 89% 0in /  0.0mm 0 W/m2
06:54 45.7 °F /  7.6 °C 42.6 °F /  5.9 °C 29.9in /  1011.1hPa North 3.8mph /  6.1km/h 6mph /  9.7km/h 89% 0in /  0.0mm 0 W/m2
06:59 45.5 °F /  7.5 °C 42.6 °F /  5.9 °C 29.9in /  1011.4hPa NNW 3.8mph /  6.1km/h 7.6mph /  12.2km/h 90% 0in /  0.0mm 0 W/m2
07:04 45.3 °F /  7.4 °C 42.6 °F /  5.9 °C 29.9in /  1011.4hPa NW 4.5mph /  7.2km/h 7.6mph /  12.2km/h 90% 0in /  0.0mm 0 W/m2
07:09 45.1 °F /  7.3 °C 42.6 °F /  5.9 °C 29.9in /  1011.4hPa NW 3.8mph /  6.1km/h 6.9mph /  11.1km/h 91% 0in /  0.0mm 0 W/m2
07:14 44.8 °F /  7.1 °C 42.3 °F /  5.7 °C 29.9in /  1011.4hPa NW 5.4mph /  8.7km/h 8.3mph /  13.4km/h 91% 0in /  0.0mm 2 W/m2
07:19 44.4 °F /  6.9 °C 42.4 °F /  5.8 °C 29.9in /  1011.4hPa NW 6mph /  9.7km/h 8.3mph /  13.4km/h 93% 0in /  0.0mm 5 W/m2
07:24 44.2 °F /  6.8 °C 42.3 °F /  5.7 °C 29.9in /  1011.4hPa NW 6.9mph /  11.1km/h 9.2mph /  14.8km/h 93% 0in /  0.0mm 7 W/m2
07:29 44.4 °F /  6.9 °C 42.8 °F /  6.0 °C 29.9in /  1011.7hPa NW 6mph /  9.7km/h 9.2mph /  14.8km/h 94% 0in /  0.0mm 37 W/m2
07:34 45 °F /  7.2 °C 43.2 °F /  6.2 °C 29.9in /  1011.4hPa NNW 4.5mph /  7.2km/h 9.2mph /  14.8km/h 93% 0in /  0.0mm 47 W/m2
07:39 45.5 °F /  7.5 °C 43.3 °F /  6.3 °C 29.9in /  1011.7hPa NNW 4.5mph /  7.2km/h 9.8mph /  15.8km/h 92% 0in /  0.0mm 60 W/m2
07:44 45.9 °F /  7.7 °C 43.7 °F /  6.5 °C 29.9in /  1011.7hPa NNW 6mph /  9.7km/h 9.8mph /  15.8km/h 92% 0in /  0.0mm 71 W/m2
07:49 46.4 °F /  8.0 °C 43.5 °F /  6.4 °C 29.9in /  1011.7hPa NNW 5.4mph /  8.7km/h 10.7mph /  17.2km/h 90% 0in /  0.0mm 83 W/m2
07:54 46.8 °F /  8.2 °C 43.7 °F /  6.5 °C 29.9in /  1011.7hPa NNW 6mph /  9.7km/h 10.7mph /  17.2km/h 89% 0in /  0.0mm 93 W/m2
07:59 47.1 °F /  8.4 °C 43.9 °F /  6.6 °C 29.9in /  1012.1hPa NNW 6mph /  9.7km/h 10.7mph /  17.2km/h 88% 0in /  0.0mm 103 W/m2
08:04 47.3 °F /  8.5 °C 43.9 °F /  6.6 °C 29.9in /  1012.1hPa NNW 5.4mph /  8.7km/h 10.7mph /  17.2km/h 88% 0in /  0.0mm 111 W/m2
08:09 47.5 °F /  8.6 °C 43.9 °F /  6.6 °C 29.9in /  1012.1hPa NW 7.6mph /  12.2km/h 10.7mph /  17.2km/h 87% 0in /  0.0mm 121 W/m2
08:14 48 °F /  8.9 °C 44.2 °F /  6.8 °C 29.9in /  1012.1hPa NNW 4.5mph /  7.2km/h 9.8mph /  15.8km/h 87% 0in /  0.0mm 130 W/m2
08:19 48.6 °F /  9.2 °C 44.6 °F /  7.0 °C 29.9in /  1012.4hPa NNW 5.4mph /  8.7km/h 9.2mph /  14.8km/h 86% 0in /  0.0mm 139 W/m2
08:24 48.7 °F /  9.3 °C 44.4 °F /  6.9 °C 29.9in /  1012.4hPa NNW 4.5mph /  7.2km/h 9.2mph /  14.8km/h 85% 0in /  0.0mm 147 W/m2
08:29 49.5 °F /  9.7 °C 45.1 °F /  7.3 °C 29.9in /  1012.4hPa NNW 5.4mph /  8.7km/h 9.2mph /  14.8km/h 85% 0in /  0.0mm 156 W/m2
08:34 50.2 °F /  10.1 °C 45.1 °F /  7.3 °C 29.9in /  1012.4hPa NNW 4.5mph /  7.2km/h 7.6mph /  12.2km/h 83% 0in /  0.0mm 165 W/m2
08:39 50.4 °F /  10.2 °C 45.1 °F /  7.3 °C 29.9in /  1012.4hPa NNW 4.5mph /  7.2km/h 7.6mph /  12.2km/h 82% 0in /  0.0mm 173 W/m2
08:44 50.5 °F /  10.3 °C 45.3 °F /  7.4 °C 29.9in /  1012.4hPa NNW 3.8mph /  6.1km/h 7.6mph /  12.2km/h 82% 0in /  0.0mm 182 W/m2
08:49 51.4 °F /  10.8 °C 45.9 °F /  7.7 °C 29.9in /  1012.4hPa NNW 5.4mph /  8.7km/h 9.2mph /  14.8km/h 81% 0in /  0.0mm 191 W/m2
08:54 51.6 °F /  10.9 °C 45.7 °F /  7.6 °C 29.9in /  1012.4hPa North 4.5mph /  7.2km/h 9.2mph /  14.8km/h 80% 0in /  0.0mm 198 W/m2
08:59 52.2 °F /  11.2 °C 45.9 °F /  7.7 °C 29.9in /  1012.4hPa NNW 4.5mph /  7.2km/h 9.2mph /  14.8km/h 79% 0in /  0.0mm 206 W/m2
09:04 52.7 °F /  11.5 °C 46 °F /  7.8 °C 29.9in /  1012.8hPa NNW 5.4mph /  8.7km/h 9.2mph /  14.8km/h 78% 0in /  0.0mm 213 W/m2
09:09 53.1 °F /  11.7 °C 46.4 °F /  8.0 °C 29.9in /  1012.8hPa NNW 5.4mph /  8.7km/h 9.8mph /  15.8km/h 78% 0in /  0.0mm 220 W/m2
09:14 53.2 °F /  11.8 °C 46.2 °F /  7.9 °C 29.9in /  1012.8hPa NNW 5.4mph /  8.7km/h 9.8mph /  15.8km/h 77% 0in /  0.0mm 226 W/m2
09:19 53.4 °F /  11.9 °C 46.4 °F /  8.0 °C 29.9in /  1012.8hPa NW 5.4mph /  8.7km/h 9.8mph /  15.8km/h 77% 0in /  0.0mm 230 W/m2
09:24 53.6 °F /  12.0 °C 46.6 °F /  8.1 °C 29.9in /  1012.8hPa NW 4.5mph /  7.2km/h 9.8mph /  15.8km/h 77% 0in /  0.0mm 201 W/m2
09:29 54.1 °F /  12.3 °C 47.1 °F /  8.4 °C 29.9in /  1012.8hPa NNW 6.9mph /  11.1km/h 10.7mph /  17.2km/h 77% 0in /  0.0mm 150 W/m2
09:34 54.3 °F /  12.4 °C 47.3 °F /  8.5 °C 29.9in /  1012.8hPa NNW 4.5mph /  7.2km/h 10.7mph /  17.2km/h 77% 0in /  0.0mm 71 W/m2
09:39 54.9 °F /  12.7 °C 47.5 °F /  8.6 °C 29.9in /  1012.8hPa NNW 3.8mph /  6.1km/h 10.7mph /  17.2km/h 76% 0in /  0.0mm 61 W/m2
09:44 56.1 °F /  13.4 °C 48.4 °F /  9.1 °C 29.9in /  1012.8hPa North 4.5mph /  7.2km/h 8.3mph /  13.4km/h 75% 0in /  0.0mm 59 W/m2
09:49 57.2 °F /  14.0 °C 48.9 °F /  9.4 °C 29.9in /  1012.8hPa North 4.5mph /  7.2km/h 8.3mph /  13.4km/h 74% 0in /  0.0mm 60 W/m2
09:54 58.5 °F /  14.7 °C 49.5 °F /  9.7 °C 29.9in /  1012.4hPa NNW 4.5mph /  7.2km/h 7.6mph /  12.2km/h 72% 0in /  0.0mm 63 W/m2
09:59 59.2 °F /  15.1 °C 49.5 °F /  9.7 °C 29.9in /  1012.8hPa NNW 6mph /  9.7km/h 9.8mph /  15.8km/h 70% 0in /  0.0mm 66 W/m2
10:04 58.8 °F /  14.9 °C 49.1 °F /  9.5 °C 29.9in /  1012.8hPa NNW 6.9mph /  11.1km/h 10.7mph /  17.2km/h 70% 0in /  0.0mm 63 W/m2
10:09 58.8 °F /  14.9 °C 49.8 °F /  9.9 °C 29.9in /  1012.8hPa NNW 5.4mph /  8.7km/h 10.7mph /  17.2km/h 72% 0in /  0.0mm 59 W/m2
10:25 59.9 °F /  15.5 °C 50.2 °F /  10.1 °C 29.9in /  1012.8hPa North 6mph /  9.7km/h 9.8mph /  15.8km/h 70% 0in /  0.0mm 62 W/m2
10:30 60.4 °F /  15.8 °C 50.5 °F /  10.3 °C 29.9in /  1012.8hPa NNW 4.5mph /  7.2km/h 9.2mph /  14.8km/h 70% 0in /  0.0mm 65 W/m2
10:35 61.7 °F /  16.5 °C 51.1 °F /  10.6 °C 29.9in /  1012.8hPa North 7.6mph /  12.2km/h 9.2mph /  14.8km/h 68% 0in /  0.0mm 68 W/m2
10:40 61.7 °F /  16.5 °C 50.5 °F /  10.3 °C 29.9in /  1012.4hPa North 4.5mph /  7.2km/h 9.8mph /  15.8km/h 67% 0in /  0.0mm 94 W/m2
10:46 61.9 °F /  16.6 °C 50.4 °F /  10.2 °C 29.9in /  1012.8hPa NNW 6mph /  9.7km/h 9.8mph /  15.8km/h 66% 0in /  0.0mm 158 W/m2
10:51 62.1 °F /  16.7 °C 50.5 °F /  10.3 °C 29.9in /  1012.4hPa NNW 6.9mph /  11.1km/h 10.7mph /  17.2km/h 66% 0in /  0.0mm 211 W/m2
10:56 62.6 °F /  17.0 °C 49.8 °F /  9.9 °C 29.9in /  1012.4hPa NNW 4.5mph /  7.2km/h 10.7mph /  17.2km/h 63% 0in /  0.0mm 253 W/m2
11:01 63.1 °F /  17.3 °C 49.8 °F /  9.9 °C 29.9in /  1012.8hPa NNW 4.5mph /  7.2km/h 10.7mph /  17.2km/h 62% 0in /  0.0mm 245 W/m2
11:06 63.7 °F /  17.6 °C 50.4 °F /  10.2 °C 29.9in /  1012.8hPa NNW 3.8mph /  6.1km/h 9.8mph /  15.8km/h 62% 0in /  0.0mm 280 W/m2
11:11 64.4 °F /  18.0 °C 51.4 °F /  10.8 °C 29.9in /  1012.8hPa NNW 6mph /  9.7km/h 9.8mph /  15.8km/h 63% 0in /  0.0mm 279 W/m2
11:16 64.6 °F /  18.1 °C 51.6 °F /  10.9 °C 29.9in /  1012.8hPa NNW 3.8mph /  6.1km/h 9.8mph /  15.8km/h 63% 0in /  0.0mm 278 W/m2
11:21 64.9 °F /  18.3 °C 52.2 °F /  11.2 °C 29.9in /  1012.8hPa NNW 3.8mph /  6.1km/h 13mph /  20.9km/h 63% 0in /  0.0mm 276 W/m2
11:26 64.9 °F /  18.3 °C 51.6 °F /  10.9 °C 29.9in /  1012.8hPa NNW 4.5mph /  7.2km/h 13.6mph /  21.9km/h 62% 0in /  0.0mm 272 W/m2
11:31 66 °F /  18.9 °C 51.3 °F /  10.7 °C 29.9in /  1012.8hPa North 6.9mph /  11.1km/h 13.6mph /  21.9km/h 59% 0in /  0.0mm 235 W/m2
11:36 65.7 °F /  18.7 °C 51.1 °F /  10.6 °C 29.9in /  1012.8hPa NNW 3.8mph /  6.1km/h 11.4mph /  18.3km/h 59% 0in /  0.0mm 157 W/m2
11:41 64.9 °F /  18.3 °C 51.3 °F /  10.7 °C 29.9in /  1012.4hPa NNW 6mph /  9.7km/h 11.4mph /  18.3km/h 61% 0in /  0.0mm 131 W/m2
11:46 64.2 °F /  17.9 °C 50.9 °F /  10.5 °C 29.9in /  1012.4hPa NNW 4.5mph /  7.2km/h 9.8mph /  15.8km/h 62% 0in /  0.0mm 121 W/m2
11:51 63.9 °F /  17.7 °C 50.5 °F /  10.3 °C 29.9in /  1012.4hPa NNW 6.9mph /  11.1km/h 10.7mph /  17.2km/h 62% 0in /  0.0mm 121 W/m2
11:56 63.7 °F /  17.6 °C 50.4 °F /  10.2 °C 29.9in /  1012.4hPa NNW 3.1mph /  5.0km/h 11.4mph /  18.3km/h 62% 0in /  0.0mm 117 W/m2
12:01 63.5 °F /  17.5 °C 50.4 °F /  10.2 °C 29.9in /  1012.4hPa NNW 3.8mph /  6.1km/h 11.4mph /  18.3km/h 62% 0in /  0.0mm 117 W/m2
12:06 63.5 °F /  17.5 °C 50.7 °F /  10.4 °C 29.9in /  1012.4hPa NNW 3.1mph /  5.0km/h 9.2mph /  14.8km/h 63% 0in /  0.0mm 115 W/m2
12:11 63.5 °F /  17.5 °C 50.7 °F /  10.4 °C 29.9in /  1012.4hPa NNW 3.1mph /  5.0km/h 8.3mph /  13.4km/h 63% 0in /  0.0mm 112 W/m2
12:16 63.5 °F /  17.5 °C 51.1 °F /  10.6 °C 29.9in /  1012.1hPa NNW 3.8mph /  6.1km/h 9.2mph /  14.8km/h 64% 0in /  0.0mm 107 W/m2
12:21 63.3 °F /  17.4 °C 51.1 °F /  10.6 °C 29.9in /  1012.1hPa NNW 4.5mph /  7.2km/h 9.2mph /  14.8km/h 64% 0in /  0.0mm 110 W/m2
12:26 63.3 °F /  17.4 °C 51.4 °F /  10.8 °C 29.9in /  1012.1hPa North 3.8mph /  6.1km/h 8.3mph /  13.4km/h 65% 0in /  0.0mm 118 W/m2
12:31 63.3 °F /  17.4 °C 51.4 °F /  10.8 °C 29.9in /  1012.1hPa North 5.4mph /  8.7km/h 8.3mph /  13.4km/h 65% 0in /  0.0mm 128 W/m2
12:36 63.1 °F /  17.3 °C 51.3 °F /  10.7 °C 29.9in /  1012.1hPa NNW 3.8mph /  6.1km/h 8.3mph /  13.4km/h 65% 0in /  0.0mm 126 W/m2
12:41 63.1 °F /  17.3 °C 50.7 °F /  10.4 °C 29.9in /  1012.1hPa NNW 4.5mph /  7.2km/h 8.3mph /  13.4km/h 64% 0in /  0.0mm 124 W/m2
12:46 63.1 °F /  17.3 °C 51.3 °F /  10.7 °C 29.9in /  1012.1hPa NW 6mph /  9.7km/h 7.6mph /  12.2km/h 65% 0in /  0.0mm 119 W/m2
12:51 63.1 °F /  17.3 °C 51.3 °F /  10.7 °C 29.9in /  1012.1hPa NNW 3.1mph /  5.0km/h 8.3mph /  13.4km/h 65% 0in /  0.0mm 117 W/m2
12:56 63.1 °F /  17.3 °C 51.3 °F /  10.7 °C 29.9in /  1011.7hPa NNW 2.2mph /  3.5km/h 8.3mph /  13.4km/h 65% 0in /  0.0mm 114 W/m2
13:01 63.1 °F /  17.3 °C 50.7 °F /  10.4 °C 29.9in /  1012.1hPa NNW 6.9mph /  11.1km/h 10.7mph /  17.2km/h 64% 0in /  0.0mm 114 W/m2
13:06 63.1 °F /  17.3 °C 50.7 °F /  10.4 °C 29.9in /  1012.1hPa NNW 3.8mph /  6.1km/h 10.7mph /  17.2km/h 64% 0in /  0.0mm 117 W/m2
13:11 63.1 °F /  17.3 °C 50.7 °F /  10.4 °C 29.9in /  1012.1hPa NNW 3.1mph /  5.0km/h 10.7mph /  17.2km/h 64% 0in /  0.0mm 123 W/m2
13:16 63.5 °F /  17.5 °C 51.1 °F /  10.6 °C 29.9in /  1012.1hPa NW 4.5mph /  7.2km/h 7.6mph /  12.2km/h 64% 0in /  0.0mm 125 W/m2
13:21 63.5 °F /  17.5 °C 51.1 °F /  10.6 °C 29.9in /  1012.1hPa NNW 1.6mph /  2.6km/h 6.9mph /  11.1km/h 64% 0in /  0.0mm 116 W/m2
13:26 63.7 °F /  17.6 °C 51.3 °F /  10.7 °C 29.9in /  1012.1hPa NNW 3.8mph /  6.1km/h 6.9mph /  11.1km/h 64% 0in /  0.0mm 107 W/m2
13:31 63.7 °F /  17.6 °C 50.4 °F /  10.2 °C 29.9in /  1012.1hPa NNW 3.1mph /  5.0km/h 6.9mph /  11.1km/h 62% 0in /  0.0mm 101 W/m2
13:36 63.7 °F /  17.6 °C 50.4 °F /  10.2 °C 29.9in /  1012.1hPa North 2.2mph /  3.5km/h 6.9mph /  11.1km/h 62% 0in /  0.0mm 99 W/m2
13:41 63.9 °F /  17.7 °C 51.1 °F /  10.6 °C 29.9in /  1011.7hPa North 3.1mph /  5.0km/h 6mph /  9.7km/h 63% 0in /  0.0mm 100 W/m2
13:46 63.7 °F /  17.6 °C 50.9 °F /  10.5 °C 29.9in /  1012.1hPa NNW 2.2mph /  3.5km/h 6mph /  9.7km/h 63% 0in /  0.0mm 97 W/m2
13:51 63.7 °F /  17.6 °C 50.9 °F /  10.5 °C 29.9in /  1012.1hPa NNW 1.6mph /  2.6km/h 6mph /  9.7km/h 63% 0in /  0.0mm 92 W/m2
13:56 63.7 °F /  17.6 °C 51.3 °F /  10.7 °C 29.9in /  1011.7hPa NNW 2.2mph /  3.5km/h 4.5mph /  7.2km/h 64% 0in /  0.0mm 81 W/m2
14:01 63.5 °F /  17.5 °C 51.1 °F /  10.6 °C 29.9in /  1011.7hPa NNW 2.2mph /  3.5km/h 6mph /  9.7km/h 64% 0in /  0.0mm 69 W/m2
14:06 63.3 °F /  17.4 °C 51.4 °F /  10.8 °C 29.9in /  1011.7hPa NNW 1.6mph /  2.6km/h 6mph /  9.7km/h 65% 0in /  0.0mm 58 W/m2
14:11 63 °F /  17.2 °C 51.1 °F /  10.6 °C 29.9in /  1011.7hPa NNW 3.1mph /  5.0km/h 5.4mph /  8.7km/h 65% 0in /  0.0mm 50 W/m2
14:16 62.8 °F /  17.1 °C 51.3 °F /  10.7 °C 29.9in /  1011.7hPa NNW 2.2mph /  3.5km/h 5.4mph /  8.7km/h 66% 0in /  0.0mm 45 W/m2
14:21 62.6 °F /  17.0 °C 51.1 °F /  10.6 °C 29.9in /  1011.7hPa North 3.8mph /  6.1km/h 6mph /  9.7km/h 66% 0in /  0.0mm 43 W/m2
14:26 62.4 °F /  16.9 °C 51.3 °F /  10.7 °C 29.9in /  1011.7hPa NNW 3.1mph /  5.0km/h 6mph /  9.7km/h 67% 0in /  0.0mm 43 W/m2
14:31 62.4 °F /  16.9 °C 51.6 °F /  10.9 °C 29.9in /  1011.7hPa NNW 3.8mph /  6.1km/h 6mph /  9.7km/h 68% 0in /  0.0mm 43 W/m2
14:36 62.2 °F /  16.8 °C 51.6 °F /  10.9 °C 29.9in /  1011.4hPa NNW 3.8mph /  6.1km/h 6.9mph /  11.1km/h 68% 0in /  0.0mm 44 W/m2
14:41 62.2 °F /  16.8 °C 51.3 °F /  10.7 °C 29.9in /  1011.4hPa NNW 5.4mph /  8.7km/h 8.3mph /  13.4km/h 67% 0in /  0.0mm 41 W/m2
14:46 62.1 °F /  16.7 °C 51.4 °F /  10.8 °C 29.9in /  1011.4hPa NNW 6mph /  9.7km/h 8.3mph /  13.4km/h 68% 0in /  0.0mm 38 W/m2
14:51 62.2 °F /  16.8 °C 51.3 °F /  10.7 °C 29.9in /  1011.4hPa NNW 5.4mph /  8.7km/h 11.4mph /  18.3km/h 67% 0in /  0.0mm 35 W/m2
14:56 62.2 °F /  16.8 °C 50.7 °F /  10.4 °C 29.9in /  1011.4hPa NNW 5.4mph /  8.7km/h 11.4mph /  18.3km/h 66% 0in /  0.0mm 34 W/m2
15:01 62.1 °F /  16.7 °C 51.1 °F /  10.6 °C 29.9in /  1011.4hPa NNW 4.5mph /  7.2km/h 9.8mph /  15.8km/h 67% 0in /  0.0mm 33 W/m2
15:06 62.1 °F /  16.7 °C 50.5 °F /  10.3 °C 29.9in /  1011.1hPa NNW 4.5mph /  7.2km/h 9.2mph /  14.8km/h 66% 0in /  0.0mm 30 W/m2
15:11 62.1 °F /  16.7 °C 50.2 °F /  10.1 °C 29.9in /  1011.4hPa NNW 5.4mph /  8.7km/h 10.7mph /  17.2km/h 65% 0in /  0.0mm 30 W/m2
15:16 62.2 °F /  16.8 °C 49.8 °F /  9.9 °C 29.9in /  1011.4hPa NNW 4.5mph /  7.2km/h 10.7mph /  17.2km/h 64% 0in /  0.0mm 28 W/m2
15:21 62.2 °F /  16.8 °C 49.8 °F /  9.9 °C 29.9in /  1011.4hPa NNW 8.3mph /  13.4km/h 13mph /  20.9km/h 64% 0in /  0.0mm 26 W/m2
15:26 62.4 °F /  16.9 °C 49.6 °F /  9.8 °C 29.9in /  1011.4hPa NNW 6.9mph /  11.1km/h 13mph /  20.9km/h 63% 0in /  0.0mm 25 W/m2
15:31 62.6 °F /  17.0 °C 48.9 °F /  9.4 °C 29.9in /  1011.7hPa NW 6mph /  9.7km/h 13.6mph /  21.9km/h 61% 0in /  0.0mm 24 W/m2
15:36 62.4 °F /  16.9 °C 49.6 °F /  9.8 °C 29.9in /  1011.4hPa NW 5.4mph /  8.7km/h 13.6mph /  21.9km/h 63% 0in /  0.0mm 23 W/m2
15:41 62.4 °F /  16.9 °C 49.6 °F /  9.8 °C 29.9in /  1011.4hPa NNW 7.6mph /  12.2km/h 12.1mph /  19.5km/h 63% 0in /  0.0mm 23 W/m2
15:46 62.4 °F /  16.9 °C 49.6 °F /  9.8 °C 29.9in /  1011.4hPa NNW 6.9mph /  11.1km/h 12.1mph /  19.5km/h 63% 0in /  0.0mm 23 W/m2
15:51 62.2 °F /  16.8 °C 49.5 °F /  9.7 °C 29.9in /  1011.4hPa NNW 9.8mph /  15.8km/h 13mph /  20.9km/h 63% 0in /  0.0mm 24 W/m2
15:56 62.6 °F /  17.0 °C 49.5 °F /  9.7 °C 29.9in /  1011.4hPa NNW 8.3mph /  13.4km/h 14.5mph /  23.3km/h 62% 0in /  0.0mm 22 W/m2
16:01 62.6 °F /  17.0 °C 49.5 °F /  9.7 °C 29.9in /  1011.7hPa NW 7.6mph /  12.2km/h 14.5mph /  23.3km/h 62% 0in /  0.0mm 20 W/m2
16:06 62.8 °F /  17.1 °C 49.1 °F /  9.5 °C 29.9in /  1011.7hPa NW 9.2mph /  14.8km/h 13.6mph /  21.9km/h 61% 0in /  0.0mm 17 W/m2
16:11 63 °F /  17.2 °C 49.3 °F /  9.6 °C 29.9in /  1011.7hPa NNW 4.5mph /  7.2km/h 18.3mph /  29.4km/h 61% 0in /  0.0mm 13 W/m2
16:16 63 °F /  17.2 °C 49.3 °F /  9.6 °C 29.9in /  1011.7hPa NW 5.4mph /  8.7km/h 18.3mph /  29.4km/h 61% 0in /  0.0mm 12 W/m2
16:21 63.1 °F /  17.3 °C 49.5 °F /  9.7 °C 29.9in /  1011.7hPa NW 5.4mph /  8.7km/h 11.4mph /  18.3km/h 61% 0in /  0.0mm 26 W/m2
16:26 64 °F /  17.8 °C 49.8 °F /  9.9 °C 29.9in /  1011.7hPa NW 6mph /  9.7km/h 10.7mph /  17.2km/h 60% 0in /  0.0mm 26 W/m2
16:31 64.8 °F /  18.2 °C 49.6 °F /  9.8 °C 29.9in /  1011.7hPa NW 8.3mph /  13.4km/h 12.1mph /  19.5km/h 58% 0in /  0.0mm 26 W/m2
16:36 65.1 °F /  18.4 °C 49.5 °F /  9.7 °C 29.9in /  1011.7hPa NW 8.3mph /  13.4km/h 13mph /  20.9km/h 57% 0in /  0.0mm 25 W/m2
16:55 63.3 °F /  17.4 °C 49.3 °F /  9.6 °C 29.9in /  1012.1hPa NW 10.7mph /  17.2km/h 20.6mph /  33.1km/h 60% 0in /  0.0mm 3 W/m2
17:00 63.1 °F /  17.3 °C 48.6 °F /  9.2 °C 29.9in /  1011.7hPa NNW 10.7mph /  17.2km/h 20.6mph /  33.1km/h 59% 0in /  0.0mm 1 W/m2
17:05 63.1 °F /  17.3 °C 48.6 °F /  9.2 °C 29.9in /  1012.1hPa NW 13mph /  20.9km/h 21.3mph /  34.3km/h 59% 0in /  0.0mm 0 W/m2
17:10 63 °F /  17.2 °C 48.4 °F /  9.1 °C 29.9in /  1011.7hPa NNW 12.1mph /  19.5km/h 21.3mph /  34.3km/h 59% 0in /  0.0mm 0 W/m2
17:15 62.8 °F /  17.1 °C 48.4 °F /  9.1 °C 29.9in /  1012.1hPa NNW 12.1mph /  19.5km/h 19.7mph /  31.7km/h 59% 0in /  0.0mm 0 W/m2
17:20 62.6 °F /  17.0 °C 48 °F /  8.9 °C 29.9in /  1012.1hPa NNW 13mph /  20.9km/h 20.6mph /  33.1km/h 59% 0in /  0.0mm 0 W/m2
17:25 62.6 °F /  17.0 °C 48 °F /  8.9 °C 29.9in /  1012.4hPa NNW 11.4mph /  18.3km/h 21.3mph /  34.3km/h 59% 0in /  0.0mm 0 W/m2
17:30 62.4 °F /  16.9 °C 48.4 °F /  9.1 °C 29.9in /  1012.8hPa NW 9.8mph /  15.8km/h 21.3mph /  34.3km/h 60% 0in /  0.0mm 0 W/m2
17:36 62.2 °F /  16.8 °C 48.6 °F /  9.2 °C 29.9in /  1012.8hPa NW 9.2mph /  14.8km/h 18.3mph /  29.4km/h 61% 0in /  0.0mm 0 W/m2
17:41 61.9 °F /  16.6 °C 48.4 °F /  9.1 °C 29.9in /  1012.8hPa NW 10.7mph /  17.2km/h 16.8mph /  27.0km/h 61% 0in /  0.0mm 0 W/m2
17:46 62.1 °F /  16.7 °C 48.9 °F /  9.4 °C 29.9in /  1012.8hPa NW 7.6mph /  12.2km/h 15.9mph /  25.6km/h 62% 0in /  0.0mm 0 W/m2
17:51 61.5 °F /  16.4 °C 48.4 °F /  9.1 °C 29.9in /  1012.8hPa NW 7.6mph /  12.2km/h 15.9mph /  25.6km/h 62% 0in /  0.0mm 0 W/m2
17:56 61.5 °F /  16.4 °C 48.4 °F /  9.1 °C 29.9in /  1012.8hPa NW 12.1mph /  19.5km/h 15.2mph /  24.5km/h 62% 0in /  0.0mm 0 W/m2
18:01 61.5 °F /  16.4 °C 48.4 °F /  9.1 °C 29.9in /  1012.8hPa NW 6mph /  9.7km/h 15.2mph /  24.5km/h 62% 0in /  0.0mm 0 W/m2
18:06 61.3 °F /  16.3 °C 48.2 °F /  9.0 °C 29.9in /  1013.1hPa NNW 5.4mph /  8.7km/h 15.2mph /  24.5km/h 62% 0in /  0.0mm 0 W/m2
18:11 61 °F /  16.1 °C 48.4 °F /  9.1 °C 29.9in /  1013.1hPa NNW 6.9mph /  11.1km/h 11.4mph /  18.3km/h 63% 0in /  0.0mm 0 W/m2
18:16 61 °F /  16.1 °C 48.4 °F /  9.1 °C 29.9in /  1013.1hPa NNW 6mph /  9.7km/h 10.7mph /  17.2km/h 63% 0in /  0.0mm 0 W/m2
18:21 61 °F /  16.1 °C 48.4 °F /  9.1 °C 29.9in /  1013.4hPa NNW 3.8mph /  6.1km/h 10.7mph /  17.2km/h 63% 0in /  0.0mm 0 W/m2
18:26 60.6 °F /  15.9 °C 48.7 °F /  9.3 °C 29.9in /  1013.4hPa NW 5.4mph /  8.7km/h 9.8mph /  15.8km/h 65% 0in /  0.0mm 0 W/m2
18:31 60.6 °F /  15.9 °C 48.7 °F /  9.3 °C 29.9in /  1013.4hPa NNW 2.2mph /  3.5km/h 9.2mph /  14.8km/h 65% 0in /  0.0mm 0 W/m2
18:36 60.4 °F /  15.8 °C 48.6 °F /  9.2 °C 29.9in /  1013.4hPa NNW 3.8mph /  6.1km/h 7.6mph /  12.2km/h 65% 0in /  0.0mm 0 W/m2
18:41 60.4 °F /  15.8 °C 48.9 °F /  9.4 °C 29.9in /  1013.4hPa NNW 3.1mph /  5.0km/h 6.9mph /  11.1km/h 66% 0in /  0.0mm 0 W/m2
18:46 60.3 °F /  15.7 °C 48.9 °F /  9.4 °C 29.9in /  1013.4hPa NNW 3.8mph /  6.1km/h 7.6mph /  12.2km/h 66% 0in /  0.0mm 0 W/m2
18:51 60.3 °F /  15.7 °C 48.9 °F /  9.4 °C 29.9in /  1013.4hPa North 4.5mph /  7.2km/h 10.7mph /  17.2km/h 66% 0in /  0.0mm 0 W/m2
18:56 60.3 °F /  15.7 °C 48.9 °F /  9.4 °C 29.9in /  1013.4hPa North 4.5mph /  7.2km/h 10.7mph /  17.2km/h 66% 0in /  0.0mm 0 W/m2
19:01 60.4 °F /  15.8 °C 48.9 °F /  9.4 °C 29.9in /  1013.4hPa NNW 5.4mph /  8.7km/h 9.2mph /  14.8km/h 66% 0in /  0.0mm 0 W/m2
19:06 60.4 °F /  15.8 °C 48.9 °F /  9.4 °C 29.9in /  1013.4hPa NW 6.9mph /  11.1km/h 10.7mph /  17.2km/h 66% 0in /  0.0mm 0 W/m2
19:11 60.4 °F /  15.8 °C 48.9 °F /  9.4 °C 29.9in /  1013.8hPa NNW 5.4mph /  8.7km/h 12.1mph /  19.5km/h 66% 0in /  0.0mm 0 W/m2
19:16 60.3 °F /  15.7 °C 48.9 °F /  9.4 °C 29.9in /  1013.8hPa NNW 6mph /  9.7km/h 12.1mph /  19.5km/h 66% 0in /  0.0mm 0 W/m2
19:21 60.4 °F /  15.8 °C 48.9 °F /  9.4 °C 29.9in /  1013.8hPa NNW 6mph /  9.7km/h 10.7mph /  17.2km/h 66% 0in /  0.0mm 0 W/m2
19:26 60.4 °F /  15.8 °C 48.9 °F /  9.4 °C 29.9in /  1014.1hPa NNW 5.4mph /  8.7km/h 14.5mph /  23.3km/h 66% 0in /  0.0mm 0 W/m2
19:31 60.6 °F /  15.9 °C 49.3 °F /  9.6 °C 29.9in /  1014.1hPa North 6.9mph /  11.1km/h 14.5mph /  23.3km/h 66% 0in /  0.0mm 0 W/m2
19:36 60.6 °F /  15.9 °C 48.7 °F /  9.3 °C 29.9in /  1013.8hPa NNW 7.6mph /  12.2km/h 13.6mph /  21.9km/h 65% 0in /  0.0mm 0 W/m2
19:41 60.6 °F /  15.9 °C 48.4 °F /  9.1 °C 29.9in /  1013.8hPa North 6.9mph /  11.1km/h 11.4mph /  18.3km/h 64% 0in /  0.0mm 0 W/m2
19:46 61 °F /  16.1 °C 48.4 °F /  9.1 °C 29.9in /  1013.8hPa North 6.9mph /  11.1km/h 11.4mph /  18.3km/h 63% 0in /  0.0mm 0 W/m2
19:51 61 °F /  16.1 °C 47.8 °F /  8.8 °C 29.9in /  1013.8hPa NNW 6mph /  9.7km/h 13mph /  20.9km/h 62% 0in /  0.0mm 0 W/m2
19:56 60.6 °F /  15.9 °C 48 °F /  8.9 °C 29.9in /  1014.1hPa NNW 6.9mph /  11.1km/h 13mph /  20.9km/h 63% 0in /  0.0mm 0 W/m2
20:01 61 °F /  16.1 °C 47.5 °F /  8.6 °C 29.9in /  1013.8hPa NNW 5.4mph /  8.7km/h 13mph /  20.9km/h 61% 0in /  0.0mm 0 W/m2
20:06 61 °F /  16.1 °C 47.5 °F /  8.6 °C 29.9in /  1013.8hPa NNW 7.6mph /  12.2km/h 13mph /  20.9km/h 61% 0in /  0.0mm 0 W/m2
20:11 60.6 °F /  15.9 °C 48 °F /  8.9 °C 29.9in /  1013.8hPa NNW 9.2mph /  14.8km/h 12.1mph /  19.5km/h 63% 0in /  0.0mm 0 W/m2
20:16 60.6 °F /  15.9 °C 48 °F /  8.9 °C 29.9in /  1013.4hPa North 4.5mph /  7.2km/h 13mph /  20.9km/h 63% 0in /  0.0mm 0 W/m2
20:21 60.4 °F /  15.8 °C 47.8 °F /  8.8 °C 29.9in /  1013.4hPa North 8.3mph /  13.4km/h 13mph /  20.9km/h 63% 0in /  0.0mm 0 W/m2
20:26 60.4 °F /  15.8 °C 47.8 °F /  8.8 °C 29.9in /  1013.8hPa NNW 9.2mph /  14.8km/h 11.4mph /  18.3km/h 63% 0in /  0.0mm 0 W/m2
20:31 60.1 °F /  15.6 °C 47.5 °F /  8.6 °C 29.9in /  1013.8hPa NNW 6mph /  9.7km/h 11.4mph /  18.3km/h 63% 0in /  0.0mm 0 W/m2
20:36 59.9 °F /  15.5 °C 47.7 °F /  8.7 °C 29.9in /  1013.8hPa NNW 5.4mph /  8.7km/h 10.7mph /  17.2km/h 64% 0in /  0.0mm 0 W/m2
20:41 59.7 °F /  15.4 °C 47.5 °F /  8.6 °C 29.9in /  1013.8hPa North 6mph /  9.7km/h 9.2mph /  14.8km/h 64% 0in /  0.0mm 0 W/m2
20:46 59.7 °F /  15.4 °C 47.8 °F /  8.8 °C 29.9in /  1013.8hPa NNW 6mph /  9.7km/h 10.7mph /  17.2km/h 65% 0in /  0.0mm 0 W/m2
20:51 59.5 °F /  15.3 °C 47.8 °F /  8.8 °C 29.9in /  1013.4hPa NNW 4.5mph /  7.2km/h 10.7mph /  17.2km/h 65% 0in /  0.0mm 0 W/m2
20:56 59.5 °F /  15.3 °C 47.8 °F /  8.8 °C 29.9in /  1013.8hPa NNW 5.4mph /  8.7km/h 10.7mph /  17.2km/h 65% 0in /  0.0mm 0 W/m2
21:01 59.5 °F /  15.3 °C 47.8 °F /  8.8 °C 29.9in /  1013.4hPa NNW 5.4mph /  8.7km/h 11.4mph /  18.3km/h 65% 0in /  0.0mm 0 W/m2
21:06 59.4 °F /  15.2 °C 47.7 °F /  8.7 °C 29.9in /  1013.4hPa North 4.5mph /  7.2km/h 11.4mph /  18.3km/h 65% 0in /  0.0mm 0 W/m2
21:11 59.4 °F /  15.2 °C 48 °F /  8.9 °C 29.9in /  1013.8hPa NNW 8.3mph /  13.4km/h 14.5mph /  23.3km/h 66% 0in /  0.0mm 0 W/m2
21:16 59.4 °F /  15.2 °C 48 °F /  8.9 °C 29.9in /  1013.8hPa NW 6mph /  9.7km/h 14.5mph /  23.3km/h 66% 0in /  0.0mm 0 W/m2
21:21 59.4 °F /  15.2 °C 48 °F /  8.9 °C 29.9in /  1013.8hPa NW 4.5mph /  7.2km/h 10.7mph /  17.2km/h 66% 0in /  0.0mm 0 W/m2
21:26 59 °F /  15.0 °C 47.7 °F /  8.7 °C 29.9in /  1013.8hPa NW 3.8mph /  6.1km/h 8.3mph /  13.4km/h 66% 0in /  0.0mm 0 W/m2
21:31 59 °F /  15.0 °C 48 °F /  8.9 °C 29.9in /  1013.8hPa NW 3.8mph /  6.1km/h 7.6mph /  12.2km/h 67% 0in /  0.0mm 0 W/m2
21:36 58.8 °F /  14.9 °C 48.4 °F /  9.1 °C 29.9in /  1013.8hPa NW 3.1mph /  5.0km/h 7.6mph /  12.2km/h 68% 0in /  0.0mm 0 W/m2
21:41 58.8 °F /  14.9 °C 48.4 °F /  9.1 °C 29.9in /  1013.8hPa NW 2.2mph /  3.5km/h 6.9mph /  11.1km/h 68% 0in /  0.0mm 0 W/m2
21:46 58.6 °F /  14.8 °C 48 °F /  8.9 °C 29.9in /  1013.8hPa WNW 3.1mph /  5.0km/h 6.9mph /  11.1km/h 68% 0in /  0.0mm 0 W/m2
21:51 58.3 °F /  14.6 °C 48.2 °F /  9.0 °C 29.9in /  1014.1hPa WNW 2.2mph /  3.5km/h 5.4mph /  8.7km/h 69% 0in /  0.0mm 0 W/m2
21:56 58.3 °F /  14.6 °C 48.2 °F /  9.0 °C 29.9in /  1013.8hPa Calm   5.4mph /  8.7km/h 69% 0in /  0.0mm 0 W/m2
22:01 57.7 °F /  14.3 °C 47.7 °F /  8.7 °C 29.9in /  1014.1hPa Calm   3.8mph /  6.1km/h 69% 0in /  0.0mm 0 W/m2
22:06 57.2 °F /  14.0 °C 47.1 °F /  8.4 °C 29.9in /  1013.8hPa Calm     69% 0in /  0.0mm 0 W/m2
22:11 56.8 °F /  13.8 °C 47.8 °F /  8.8 °C 29.9in /  1013.8hPa Calm     72% 0in /  0.0mm 0 W/m2
22:16 56.8 °F /  13.8 °C 47.8 °F /  8.8 °C 29.9in /  1013.8hPa Calm     72% 0in /  0.0mm 0 W/m2
22:21 56.7 °F /  13.7 °C 47.7 °F /  8.7 °C 29.9in /  1013.4hPa ENE 1.6mph /  2.6km/h 2.2mph /  3.5km/h 72% 0in /  0.0mm 0 W/m2
22:26 56.5 °F /  13.6 °C 47.8 °F /  8.8 °C 29.9in /  1013.4hPa Calm   2.2mph /  3.5km/h 73% 0in /  0.0mm 0 W/m2
22:31 56.1 °F /  13.4 °C 48 °F /  8.9 °C 29.9in /  1013.4hPa NE 0.7mph /  1.1km/h 3.1mph /  5.0km/h 74% 0in /  0.0mm 0 W/m2
22:36 55.9 °F /  13.3 °C 48 °F /  8.9 °C 29.9in /  1013.4hPa Calm   3.1mph /  5.0km/h 75% 0in /  0.0mm 0 W/m2
22:41 55.8 °F /  13.2 °C 48 °F /  8.9 °C 29.9in /  1013.4hPa North 1.6mph /  2.6km/h 3.1mph /  5.0km/h 75% 0in /  0.0mm 0 W/m2
22:46 55.6 °F /  13.1 °C 47.8 °F /  8.8 °C 29.9in /  1013.4hPa Calm   2.2mph /  3.5km/h 75% 0in /  0.0mm 0 W/m2
22:51 55.6 °F /  13.1 °C 47.8 °F /  8.8 °C 29.9in /  1013.4hPa Calm   2.2mph /  3.5km/h 75% 0in /  0.0mm 0 W/m2
22:56 55.6 °F /  13.1 °C 47.8 °F /  8.8 °C 29.9in /  1013.4hPa Calm   2.2mph /  3.5km/h 75% 0in /  0.0mm 0 W/m2
23:01 55.4 °F /  13.0 °C 47.7 °F /  8.7 °C 29.9in /  1013.4hPa North 0.7mph /  1.1km/h 3.1mph /  5.0km/h 75% 0in /  0.0mm 0 W/m2
23:06 55 °F /  12.8 °C 47.3 °F /  8.5 °C 29.9in /  1013.4hPa North 0.7mph /  1.1km/h 3.1mph /  5.0km/h 75% 0in /  0.0mm 0 W/m2
23:11 54.9 °F /  12.7 °C 47.5 °F /  8.6 °C 29.9in /  1013.4hPa Calm   2.2mph /  3.5km/h 76% 0in /  0.0mm 0 W/m2
23:16 54.9 °F /  12.7 °C 47.8 °F /  8.8 °C 29.9in /  1013.4hPa NW 0.7mph /  1.1km/h 2.2mph /  3.5km/h 77% 0in /  0.0mm 0 W/m2
23:33 54.3 °F /  12.4 °C 48 °F /  8.9 °C 29.9in /  1013.4hPa Calm   1.6mph /  2.6km/h 79% 0in /  0.0mm 0 W/m2
23:38 54 °F /  12.2 °C 47.7 °F /  8.7 °C 29.9in /  1013.4hPa WNW 3.1mph /  5.0km/h 3.8mph /  6.1km/h 79% 0in /  0.0mm 0 W/m2
23:43 54.1 °F /  12.3 °C 48 °F /  8.9 °C 29.9in /  1013.4hPa Calm   3.8mph /  6.1km/h 80% 0in /  0.0mm 0 W/m2
23:48 54 °F /  12.2 °C 47.8 °F /  8.8 °C 29.9in /  1013.4hPa NNW 0.7mph /  1.1km/h 3.8mph /  6.1km/h 80% 0in /  0.0mm 0 W/m2
23:53 53.8 °F /  12.1 °C 47.8 °F /  8.8 °C 29.9in /  1013.4hPa ENE 1.6mph /  2.6km/h 2.2mph /  3.5km/h 80% 0in /  0.0mm 0 W/m2
23:58 53.6 °F /  12.0 °C 47.7 °F /  8.7 °C 29.9in /  1013.4hPa East 1.6mph /  2.6km/h 2.2mph /  3.5km/h 80% 0in /  0.0mm 0 W/m2
Northern Hawkes Bay. New Zealand Historic Data
Compliments of Weather Underground - 2 mb